Time;durP1;ratioP1;P1;durP2;ratioP2;P2;SDS_P1;SDS_P2;PMS_P1;PMS_P2;Temp;Humidity;BMP_temperature;BMP_pressure;BME280_temperature;BME280_humidity;BME280_pressure;Samples;Min_cycle;Max_cycle;Signal;HPM_P1;HPM_P2
2023/03/21 00:06:07;;;;;;;2.30;1.10;;;;;;;3.15;100.00;97947.50;21954073;27;20466;-53
2023/03/21 00:16:16;;;;;;;1.17;1.00;;;;;;;3.08;100.00;97946.72;21973357;27;20047;-53
2023/03/21 00:26:25;;;;;;;1.83;0.93;;;;;;;2.92;100.00;97959.56;21973020;27;20329;-55
2023/03/21 00:36:29;;;;;;;1.50;1.13;;;;;;;2.82;100.00;97949.34;21972541;27;20063;-53
2023/03/21 00:46:34;;;;;;;4.10;1.23;;;;;;;2.72;100.00;97944.44;21972492;27;20101;-53
2023/03/21 00:56:58;;;;;;;1.20;0.83;;;;;;;2.59;100.00;97927.66;21972005;27;20033;-55
2023/03/21 01:07:02;;;;;;;0.93;0.73;;;;;;;2.45;100.00;97916.22;21952780;27;20338;-56
2023/03/21 01:17:06;;;;;;;1.73;1.20;;;;;;;2.32;100.00;97915.25;21971379;27;20407;-56
2023/03/21 01:27:10;;;;;;;1.37;1.03;;;;;;;2.24;100.00;97909.34;21971145;27;20060;-53
2023/03/21 01:37:13;;;;;;;1.80;0.97;;;;;;;2.18;100.00;97897.66;21971027;27;20079;-53
2023/03/21 01:47:17;;;;;;;1.90;1.27;;;;;;;2.14;100.00;97902.56;21970929;27;20025;-55
2023/03/21 01:57:31;;;;;;;3.67;1.37;;;;;;;2.08;100.00;97895.41;21950804;27;20041;-56
2023/03/21 02:07:53;;;;;;;1.70;1.10;;;;;;;2.09;100.00;97888.25;21969854;27;20042;-57
2023/03/21 02:18:46;;;;;;;2.37;0.87;;;;;;;2.06;100.00;97883.31;21969921;27;20025;-52
2023/03/21 02:29:20;;;;;;;1.50;0.90;;;;;;;1.89;100.00;97881.09;21870028;27;20473;-54
2023/03/21 02:40:09;;;;;;;5.87;1.60;;;;;;;1.82;100.00;97878.47;21878972;27;20038;-56
2023/03/21 02:50:20;;;;;;;2.93;1.83;;;;;;;1.74;100.00;97869.84;21866843;27;20038;-55
2023/03/21 03:00:29;;;;;;;2.00;1.00;;;;;;;1.65;100.00;97861.25;21847715;27;20084;-54
2023/03/21 03:10:56;;;;;;;1.40;1.00;;;;;;;1.63;100.00;97863.31;21848307;27;20029;-56
2023/03/21 03:21:21;;;;;;;2.97;1.20;;;;;;;1.66;100.00;97863.72;21887630;27;20118;-54
2023/03/21 03:31:31;;;;;;;2.13;1.13;;;;;;;1.63;100.00;97844.63;21974562;27;20025;-56
2023/03/21 03:41:43;;;;;;;2.20;1.17;;;;;;;1.55;100.00;97853.69;21974543;27;20025;-55
2023/03/21 03:52:17;;;;;;;1.67;0.80;;;;;;;1.50;100.00;97845.50;21974136;27;20059;-55
2023/03/21 04:02:20;;;;;;;1.30;1.00;;;;;;;1.43;100.00;97836.69;21973752;27;20112;-56
2023/03/21 04:12:24;;;;;;;1.40;0.97;;;;;;;1.36;100.00;97828.72;21953828;27;20021;-56
2023/03/21 04:22:28;;;;;;;1.60;1.10;;;;;;;1.29;100.00;97842.03;21972790;27;20039;-56
2023/03/21 04:32:32;;;;;;;1.87;1.13;;;;;;;1.22;100.00;97825.25;21972463;27;20029;-55
2023/03/21 04:42:36;;;;;;;1.70;1.20;;;;;;;1.18;100.00;97837.34;21952559;27;20035;-55
2023/03/21 04:52:39;;;;;;;1.97;1.37;;;;;;;1.14;100.00;97836.09;21972524;27;20180;-57
2023/03/21 05:02:43;;;;;;;3.50;1.10;;;;;;;1.12;100.00;97832.81;21972001;27;20025;-56
2023/03/21 05:12:47;;;;;;;1.73;1.43;;;;;;;1.06;100.00;97823.81;21971933;27;20021;-56
2023/03/21 05:22:50;;;;;;;2.23;1.50;;;;;;;1.03;100.00;97832.22;21970909;27;20041;-55
2023/03/21 05:32:54;;;;;;;2.13;1.40;;;;;;;1.10;100.00;97816.22;21970799;27;20102;-56
2023/03/21 05:42:58;;;;;;;3.93;1.50;;;;;;;1.20;100.00;97824.62;21951469;27;20025;-56
2023/03/21 05:53:01;;;;;;;1.83;1.63;;;;;;;1.27;100.00;97816.62;21950866;27;20025;-55
2023/03/21 06:03:05;;;;;;;1.60;1.27;;;;;;;1.47;100.00;97827.25;21950290;27;20405;-55
2023/03/21 06:13:08;;;;;;;2.73;1.50;;;;;;;1.75;100.00;97807.50;21950061;27;20024;-56
2023/03/21 06:23:10;;;;;;;4.17;1.23;;;;;;;2.17;100.00;97811.44;21950266;27;20040;-56
2023/03/21 06:33:13;;;;;;;2.27;1.60;;;;;;;2.72;100.00;97810.94;21949906;27;20037;-55
2023/03/21 06:43:16;;;;;;;2.43;1.47;;;;;;;3.44;100.00;97807.06;21968864;27;20337;-56
2023/03/21 06:53:23;;;;;;;1.50;1.07;;;;;;;4.26;100.00;97813.16;21968899;27;20416;-56
2023/03/21 07:03:26;;;;;;;2.40;1.70;;;;;;;4.98;100.00;97815.84;21969299;27;20026;-55
2023/03/21 07:13:30;;;;;;;2.50;1.50;;;;;;;5.65;100.00;97819.28;21949441;27;20053;-57
2023/03/21 07:23:33;;;;;;;3.30;2.20;;;;;;;6.28;100.00;97815.81;21968281;27;20480;-56
2023/03/21 07:33:36;;;;;;;2.30;1.50;;;;;;;6.79;100.00;97805.19;21968633;27;20032;-56
2023/03/21 07:43:39;;;;;;;2.33;1.83;;;;;;;7.22;100.00;97804.81;21968376;27;20334;-57
2023/03/21 07:53:42;;;;;;;3.60;1.53;;;;;;;7.64;100.00;97807.06;21947093;27;20044;-57
2023/03/21 08:03:46;;;;;;;2.17;1.83;;;;;;;8.14;100.00;97813.37;21970333;27;20035;-57
2023/03/21 08:13:50;;;;;;;3.65;2.12;;;;;;;8.53;100.00;97834.06;21973240;27;20072;-57
2023/03/21 08:23:53;;;;;;;3.67;2.10;;;;;;;8.88;100.00;97836.31;21972770;27;20067;-54
2023/03/21 08:33:55;;;;;;;2.47;1.67;;;;;;;9.21;100.00;97839.03;21953503;27;20037;-56
2023/03/21 08:43:58;;;;;;;3.63;1.60;;;;;;;9.64;100.00;97834.50;21952673;27;20025;-56
2023/03/21 08:54:01;;;;;;;2.03;1.17;;;;;;;10.02;100.00;97843.37;21952778;27;20022;-55
2023/03/21 09:04:06;;;;;;;1.10;0.80;;;;;;;10.23;100.00;97838.88;21971856;27;20037;-56
2023/03/21 09:14:10;;;;;;;4.00;1.47;;;;;;;10.43;100.00;97826.53;21971166;27;20059;-56
2023/03/21 09:24:14;;;;;;;2.63;1.50;;;;;;;10.60;100.00;97823.66;21971268;27;20037;-54
2023/03/21 09:34:17;;;;;;;3.17;1.30;;;;;;;10.96;100.00;97823.72;21970864;27;20017;-57
2023/03/21 09:44:45;;;;;;;1.67;1.08;;;;;;;11.50;100.00;97817.78;21970834;27;20065;-56
2023/03/21 09:54:48;;;;;;;1.75;0.90;;;;;;;12.05;100.00;97827.19;21950459;27;20032;-57
2023/03/21 10:04:51;;;;;;;2.00;1.00;;;;;;;12.62;94.16;97825.03;21970223;27;20467;-56
2023/03/21 10:14:57;;;;;;;2.10;0.93;;;;;;;13.20;87.50;97824.41;21950514;27;20031;-57
2023/03/21 10:25:00;;;;;;;1.52;1.10;;;;;;;13.72;88.09;97817.47;21949912;27;20069;-56
2023/03/21 10:35:03;;;;;;;1.62;1.40;;;;;;;14.51;83.45;97829.91;21969132;27;20032;-57
2023/03/21 10:45:15;;;;;;;3.15;1.50;;;;;;;14.73;69.88;97825.81;21949222;27;20441;-57
2023/03/21 10:55:27;;;;;;;3.05;1.33;;;;;;;14.88;68.52;97805.75;21969321;27;20417;-56
2023/03/21 11:05:40;;;;;;;2.58;1.23;;;;;;;15.40;65.14;97795.69;21968850;27;20029;-57
2023/03/21 11:16:11;;;;;;;1.70;0.93;;;;;;;15.51;66.56;97790.03;21968779;27;20112;-57
2023/03/21 11:26:29;;;;;;;3.95;1.05;;;;;;;16.01;62.68;97789.44;21963974;27;20025;-57
2023/03/21 11:36:36;;;;;;;3.85;1.48;;;;;;;16.55;60.50;97789.69;21969248;27;20017;-57
2023/03/21 11:46:40;;;;;;;2.03;1.10;;;;;;;16.70;60.33;97780.38;21974432;27;20029;-58
2023/03/21 11:56:52;;;;;;;3.00;1.23;;;;;;;16.81;63.12;97759.91;21973765;27;20307;-58
2023/03/21 12:07:11;;;;;;;1.50;0.88;;;;;;;17.01;59.84;97752.37;21973877;27;20044;-57
2023/03/21 12:17:23;;;;;;;1.70;0.68;;;;;;;17.25;58.54;97746.59;21973272;27;20029;-56
2023/03/21 12:27:28;;;;;;;2.92;1.00;;;;;;;17.84;58.60;97734.66;21972964;27;20026;-55
2023/03/21 12:37:40;;;;;;;1.70;0.90;;;;;;;17.97;58.07;97722.84;21972554;27;20047;-55
2023/03/21 12:47:50;;;;;;;1.80;0.85;;;;;;;18.55;58.26;97720.03;21972547;27;20040;-55
2023/03/21 12:58:04;;;;;;;1.85;0.65;;;;;;;19.06;53.31;97707.50;21952454;27;20029;-55
2023/03/21 13:08:16;;;;;;;2.30;0.88;;;;;;;19.42;54.13;97687.06;21952123;27;20079;-55
2023/03/21 13:18:43;;;;;;;0.88;0.65;;;;;;;19.54;49.13;97682.84;21971755;27;20360;-55
2023/03/21 13:28:47;;;;;;;1.17;0.50;;;;;;;19.52;49.38;97674.16;21971328;27;20033;-55
2023/03/21 13:38:52;;;;;;;1.15;0.50;;;;;;;19.50;51.00;97655.28;21970736;27;20108;-54
2023/03/21 13:49:07;;;;;;;1.58;0.60;;;;;;;19.83;49.52;97646.44;21970238;27;20055;-55
2023/03/21 13:59:11;;;;;;;1.10;0.50;;;;;;;19.78;48.27;97643.84;21969723;27;20039;-55
2023/03/21 14:09:32;;;;;;;1.95;0.90;;;;;;;19.47;46.60;97653.16;21969520;27;20029;-55
2023/03/21 14:19:35;;;;;;;1.42;0.90;;;;;;;19.13;46.62;97646.69;21969824;27;20029;-55
2023/03/21 14:29:38;;;;;;;2.00;0.80;;;;;;;19.00;48.55;97642.22;21969616;27;20036;-55
2023/03/21 14:39:41;;;;;;;1.12;0.90;;;;;;;18.71;49.68;97640.94;21969238;27;20029;-55
2023/03/21 14:49:44;;;;;;;2.90;0.60;;;;;;;18.56;48.69;97628.56;21969170;27;20077;-54
2023/03/21 14:59:51;;;;;;;1.52;0.90;;;;;;;18.17;49.08;97639.34;21968665;27;20031;-55
2023/03/21 15:09:56;;;;;;;0.65;0.43;;;;;;;18.36;51.79;97627.28;21969565;27;20025;-53
2023/03/21 15:19:59;;;;;;;1.17;0.52;;;;;;;18.09;49.89;97615.53;21974618;27;20025;-55
2023/03/21 15:30:03;;;;;;;1.00;0.68;;;;;;;18.18;52.40;97613.56;21974658;27;20037;-55
2023/03/21 15:40:19;;;;;;;1.30;0.90;;;;;;;18.01;52.36;97608.13;21954573;27;20018;-55
2023/03/21 15:50:28;;;;;;;1.98;0.50;;;;;;;17.68;53.01;97603.00;21974908;27;20072;-54
2023/03/21 16:00:42;;;;;;;1.48;0.65;;;;;;;17.38;55.17;97619.19;21973587;27;20040;-55
2023/03/21 16:10:47;;;;;;;1.35;0.60;;;;;;;17.05;58.30;97616.78;21973636;27;20029;-55
2023/03/21 16:20:52;;;;;;;1.12;0.50;;;;;;;16.68;59.12;97611.41;21972973;27;20401;-54
2023/03/21 16:30:55;;;;;;;3.45;0.60;;;;;;;16.42;61.35;97608.50;21973577;27;20035;-54
2023/03/21 16:40:59;;;;;;;1.73;0.90;;;;;;;16.21;63.50;97622.63;21972938;27;20303;-54
2023/03/21 16:51:02;;;;;;;2.25;0.70;;;;;;;15.86;64.94;97626.97;21953180;27;20029;-56
2023/03/21 17:01:10;;;;;;;0.80;0.57;;;;;;;15.47;68.27;97620.09;21952296;27;20315;-53
2023/03/21 17:11:16;;;;;;;1.85;0.70;;;;;;;15.05;72.59;97620.88;21972085;27;20040;-55
2023/03/21 17:21:25;;;;;;;1.77;0.70;;;;;;;14.74;74.58;97640.47;21952083;27;20418;-55
2023/03/21 17:31:33;;;;;;;1.83;0.80;;;;;;;14.31;79.13;97653.37;21971113;27;20044;-55
2023/03/21 17:41:36;;;;;;;0.90;0.60;;;;;;;14.14;78.56;97640.28;21970853;27;20028;-55
2023/03/21 17:51:40;;;;;;;0.90;0.60;;;;;;;13.71;81.89;97643.84;21970874;27;20334;-57
2023/03/21 18:01:43;;;;;;;1.48;0.90;;;;;;;13.35;85.75;97644.25;21970493;27;20053;-57
2023/03/21 18:11:46;;;;;;;1.50;0.83;;;;;;;13.08;86.11;97636.66;21950932;27;20068;-56
2023/03/21 18:21:50;;;;;;;2.25;0.70;;;;;;;12.74;88.91;97632.88;21949717;27;20041;-56
2023/03/21 18:31:52;;;;;;;0.97;0.73;;;;;;;12.37;92.19;97637.81;21950229;27;20036;-56
2023/03/21 18:42:08;;;;;;;1.20;0.70;;;;;;;11.96;96.89;97634.53;21936270;27;20026;-53
2023/03/21 18:52:18;;;;;;;1.77;0.88;;;;;;;11.66;100.00;97631.69;21969277;27;20048;-56
2023/03/21 19:02:21;;;;;;;2.03;0.88;;;;;;;11.49;100.00;97626.59;21969122;27;20100;-56
2023/03/21 19:12:25;;;;;;;1.77;1.30;;;;;;;11.34;100.00;97621.25;21968594;27;20029;-56
2023/03/21 19:22:28;;;;;;;1.70;1.03;;;;;;;11.10;100.00;97623.75;21968526;27;20326;-57
2023/03/21 19:32:32;;;;;;;2.37;1.50;;;;;;;10.93;100.00;97632.19;21969309;27;20457;-56
2023/03/21 19:42:35;;;;;;;2.97;1.60;;;;;;;10.70;100.00;97623.53;21968490;27;20021;-55
2023/03/21 19:52:38;;;;;;;1.90;1.20;;;;;;;10.41;100.00;97626.00;21948570;27;20025;-55
2023/03/21 20:02:44;;;;;;;2.70;1.27;;;;;;;10.27;100.00;97618.38;21971928;27;20025;-56
2023/03/21 20:12:47;;;;;;;4.07;2.40;;;;;;;10.25;100.00;97625.13;21954025;27;20029;-56
2023/03/21 20:22:53;;;;;;;6.30;3.60;;;;;;;10.21;100.00;97634.84;21972983;27;20025;-57
2023/03/21 20:33:13;;;;;;;5.60;3.27;;;;;;;10.20;100.00;97638.66;21973038;27;20041;-55
2023/03/21 20:43:16;;;;;;;4.03;2.50;;;;;;;10.20;100.00;97642.16;21953168;27;20040;-56
2023/03/21 20:53:39;;;;;;;5.60;2.40;;;;;;;10.11;100.00;97658.09;21956502;27;20458;-56
2023/03/21 21:03:43;;;;;;;2.30;1.53;;;;;;;10.06;100.00;97663.47;21952816;27;20076;-57
2023/03/21 21:13:46;;;;;;;2.00;1.33;;;;;;;10.14;100.00;97684.56;21972602;27;20344;-55
2023/03/21 21:23:49;;;;;;;2.50;1.60;;;;;;;10.38;100.00;97689.50;21971427;27;20086;-56
2023/03/21 21:33:53;;;;;;;2.07;1.27;;;;;;;10.54;100.00;97694.91;21970977;27;20414;-56
2023/03/21 21:43:56;;;;;;;1.73;1.20;;;;;;;10.47;100.00;97687.06;21951144;27;20361;-56
2023/03/21 21:54:02;;;;;;;2.67;1.10;;;;;;;10.41;100.00;97680.06;21970779;27;20076;-56
2023/03/21 22:04:06;;;;;;;4.00;1.67;;;;;;;10.33;100.00;97682.19;21970949;27;20026;-57
2023/03/21 22:14:09;;;;;;;2.87;1.52;;;;;;;10.24;100.00;97688.38;21970008;27;20036;-56
2023/03/21 22:24:12;;;;;;;2.50;1.80;;;;;;;10.03;100.00;97680.22;21968917;27;20436;-57
2023/03/21 22:34:14;;;;;;;5.03;1.80;;;;;;;9.70;100.00;97681.44;21969381;27;20030;-56
2023/03/21 22:44:17;;;;;;;3.83;1.87;;;;;;;9.24;100.00;97674.75;21969552;27;20099;-56
2023/03/21 22:54:20;;;;;;;3.63;1.90;;;;;;;8.85;100.00;97685.00;21969059;27;20041;-56
2023/03/21 23:04:25;;;;;;;2.93;1.77;;;;;;;8.43;100.00;97678.44;21968853;27;20410;-56
2023/03/21 23:14:28;;;;;;;2.93;2.00;;;;;;;8.07;100.00;97670.00;21968715;27;20374;-56
2023/03/21 23:24:30;;;;;;;4.13;1.77;;;;;;;7.64;100.00;97673.31;21968540;27;20314;-56
2023/03/21 23:34:33;;;;;;;2.23;1.60;;;;;;;7.34;100.00;97678.31;21970876;27;20033;-56
2023/03/21 23:44:35;;;;;;;2.67;1.90;;;;;;;7.00;100.00;97679.16;21974989;27;20021;-56
2023/03/21 23:54:38;;;;;;;3.30;1.70;;;;;;;6.70;100.00;97682.22;21974380;27;20339;-56
